createdAt,value
2019-04-28T00:02:01.414Z,58.70
2019-04-28T00:04:29.375Z,58.70
2019-04-28T00:06:57.811Z,58.70
2019-04-28T00:09:26.315Z,58.70
2019-04-28T00:11:54.195Z,58.80
2019-04-28T00:14:22.314Z,58.70
2019-04-28T00:16:51.207Z,58.70
2019-04-28T00:19:20.928Z,58.80
2019-04-28T00:21:57.779Z,58.80
2019-04-28T00:24:47.007Z,58.90
2019-04-28T00:27:16.911Z,58.70
2019-04-28T00:29:46.141Z,58.70
2019-04-28T00:32:14.324Z,58.70
2019-04-28T00:34:42.167Z,58.80
2019-04-28T00:37:44.271Z,58.80
2019-04-28T00:40:12.203Z,58.80
2019-04-28T00:42:41.410Z,58.90
2019-04-28T00:45:11.564Z,58.80
2019-04-28T00:47:40.879Z,58.80
2019-04-28T00:50:09.208Z,58.80
2019-04-28T00:52:37.127Z,58.80
2019-04-28T00:55:05.187Z,58.80
2019-04-28T00:57:33.391Z,58.90
2019-04-28T01:00:02.370Z,58.80
2019-04-28T01:02:47.584Z,58.80
2019-04-28T01:05:15.704Z,58.80
2019-04-28T01:07:44.107Z,58.70
2019-04-28T01:10:12.305Z,58.80
2019-04-28T01:12:41.095Z,58.90
2019-04-28T01:15:11.956Z,58.80
2019-04-28T01:17:54.845Z,58.80
2019-04-28T01:20:23.309Z,58.80
2019-04-28T01:22:51.265Z,58.80
2019-04-28T01:25:20.333Z,58.80
2019-04-28T01:27:51.743Z,58.80
2019-04-28T01:30:49.915Z,58.70
2019-04-28T01:33:40.638Z,58.70
2019-04-28T01:36:10.339Z,58.70
2019-04-28T01:38:39.705Z,58.60
2019-04-28T01:41:09.858Z,58.60
2019-04-28T01:43:37.962Z,58.50
2019-04-28T01:46:06.172Z,58.50
2019-04-28T01:48:34.091Z,58.50
2019-04-28T01:51:01.935Z,58.40
2019-04-28T01:53:30.849Z,58.40
2019-04-28T01:55:59.535Z,58.50
2019-04-28T01:58:29.594Z,58.50
2019-04-28T02:00:59.422Z,58.50
2019-04-28T02:03:27.163Z,58.50
2019-04-28T02:05:55.618Z,58.50
2019-04-28T02:08:23.464Z,58.50
2019-04-28T02:10:51.311Z,58.50
2019-04-28T02:13:19.875Z,58.50
2019-04-28T02:15:49.911Z,58.50
2019-04-28T02:18:17.588Z,58.50
2019-04-28T02:20:49.356Z,58.50
2019-04-28T02:23:22.809Z,58.50
2019-04-28T02:25:50.662Z,58.40
2019-04-28T02:28:19.835Z,58.40
2019-04-28T02:30:53.154Z,58.50
2019-04-28T02:33:17.944Z,58.50
2019-04-28T02:35:45.793Z,58.50
2019-04-28T02:38:13.992Z,58.50
2019-04-28T02:40:42.164Z,58.50
2019-04-28T02:43:11.415Z,58.40
2019-04-28T02:45:41.230Z,58.50
2019-04-28T02:48:14.500Z,58.50
2019-04-28T02:50:50.960Z,58.50
2019-04-28T02:53:27.659Z,58.50
2019-04-28T02:55:55.536Z,58.60
2019-04-28T02:58:23.407Z,58.50
2019-04-28T03:01:02.908Z,58.50
2019-04-28T03:03:21.306Z,58.50
2019-04-28T03:05:51.271Z,58.50
2019-04-28T03:08:21.319Z,58.50
2019-04-28T03:10:50.862Z,58.60
2019-04-28T03:13:20.887Z,58.50
2019-04-28T03:15:51.230Z,58.50
2019-04-28T03:18:21.207Z,58.60
2019-04-28T03:20:47.925Z,58.50
2019-04-28T03:23:16.212Z,58.50
2019-04-28T03:26:05.147Z,58.50
2019-04-28T03:28:46.120Z,58.60
2019-04-28T03:32:01.021Z,58.50
2019-04-28T03:34:04.471Z,58.50
2019-04-28T03:36:33.480Z,58.60
2019-04-28T03:39:01.682Z,58.50
2019-04-28T03:41:31.126Z,58.50
2019-04-28T03:44:00.456Z,58.60
2019-04-28T03:46:30.649Z,58.50
2019-04-28T03:49:00.713Z,58.50
2019-04-28T03:51:30.702Z,58.50
2019-04-28T03:54:02.407Z,58.50
2019-04-28T03:56:27.910Z,58.50
2019-04-28T03:58:55.856Z,58.50
2019-04-28T04:01:23.698Z,58.60
2019-04-28T04:03:51.891Z,58.60
2019-04-28T04:06:22.387Z,58.60
2019-04-28T04:08:50.582Z,58.60
2019-04-28T04:11:41.874Z,58.50
2019-04-28T04:14:26.985Z,58.60
2019-04-28T04:17:17.945Z,58.60
2019-04-28T04:19:46.100Z,58.00
2019-04-28T04:22:13.956Z,58.50
2019-04-28T04:24:41.837Z,58.50
2019-04-28T04:27:10.670Z,58.50
2019-04-28T04:29:43.265Z,58.60
2019-04-28T04:32:15.587Z,58.50
2019-04-28T04:34:40.526Z,58.30
2019-04-28T04:37:07.597Z,58.50
2019-04-28T04:39:36.259Z,58.50
2019-04-28T04:42:04.372Z,58.60
2019-04-28T04:44:32.320Z,58.50
2019-04-28T04:47:00.976Z,58.50
2019-04-28T04:49:31.638Z,58.60
2019-04-28T04:52:00.388Z,58.50
2019-04-28T04:54:32.070Z,58.50
2019-04-28T04:57:00.076Z,58.50
2019-04-28T04:59:30.175Z,58.50
2019-04-28T05:02:29.593Z,58.50
2019-04-28T05:04:57.352Z,58.50
2019-04-28T05:07:25.203Z,58.40
2019-04-28T05:09:53.076Z,58.30
2019-04-28T05:12:21.315Z,58.40
2019-04-28T05:14:49.492Z,58.40
2019-04-28T05:17:17.420Z,58.30
2019-04-28T05:19:45.299Z,58.30
2019-04-28T05:22:13.515Z,58.40
2019-04-28T05:24:51.144Z,58.50
2019-04-28T05:27:23.952Z,58.40
2019-04-28T05:29:51.162Z,58.50
2019-04-28T05:32:20.057Z,58.50
2019-04-28T05:34:50.244Z,58.40
2019-04-28T05:37:19.344Z,58.30
2019-04-28T05:39:49.696Z,58.30
2019-04-28T05:42:17.459Z,58.50
2019-04-28T05:44:45.640Z,58.40
2019-04-28T05:47:13.488Z,58.40
2019-04-28T05:49:56.856Z,58.40
2019-04-28T05:52:34.081Z,58.40
2019-04-28T05:55:10.138Z,58.30
2019-04-28T05:57:42.560Z,58.30
2019-04-28T06:00:21.417Z,58.40
2019-04-28T06:02:56.450Z,58.30
2019-04-28T06:05:20.125Z,58.30
2019-04-28T06:08:06.475Z,58.30
2019-04-28T06:10:34.472Z,58.30
2019-04-28T06:13:02.318Z,58.30
2019-04-28T06:15:30.199Z,58.40
2019-04-28T06:18:00.010Z,58.50
2019-04-28T06:20:30.210Z,58.50
2019-04-28T06:22:57.724Z,58.40
2019-04-28T06:25:25.652Z,58.40
2019-04-28T06:27:53.569Z,58.50
2019-04-28T06:30:21.445Z,58.50
2019-04-28T06:32:49.654Z,58.50
2019-04-28T06:35:17.892Z,58.50
2019-04-28T06:37:45.857Z,58.50
2019-04-28T06:40:13.871Z,58.50
2019-04-28T06:42:41.862Z,58.40
2019-04-28T06:45:10.078Z,58.40
2019-04-28T06:47:37.999Z,58.40
2019-04-28T06:50:05.923Z,58.40
2019-04-28T06:52:33.866Z,58.50
2019-04-28T06:55:01.713Z,58.50
2019-04-28T06:57:29.973Z,58.40
2019-04-28T06:59:57.944Z,58.40
2019-04-28T07:02:26.176Z,58.40
2019-04-28T07:05:01.734Z,59.00
2019-04-28T07:07:24.533Z,58.40
2019-04-28T07:09:52.375Z,58.40
2019-04-28T07:12:20.969Z,58.30
2019-04-28T07:14:48.826Z,58.20
2019-04-28T07:17:16.747Z,58.30
2019-04-28T07:19:46.247Z,58.20
2019-04-28T07:22:20.040Z,58.20
2019-04-28T07:24:47.893Z,58.30
2019-04-28T07:27:15.800Z,58.80
2019-04-28T07:29:43.654Z,58.10
2019-04-28T07:32:12.306Z,58.20
2019-04-28T07:34:40.427Z,58.20
2019-04-28T07:37:09.068Z,58.10
2019-04-28T07:39:36.916Z,58.00
2019-04-28T07:42:05.159Z,58.00
2019-04-28T07:44:33.010Z,57.90
2019-04-28T07:47:00.864Z,57.90
2019-04-28T07:49:28.711Z,57.80
2019-04-28T07:52:20.549Z,57.90
2019-04-28T07:54:48.507Z,57.80
2019-04-28T07:57:16.743Z,57.80
2019-04-28T07:59:44.596Z,57.80
2019-04-28T08:02:12.523Z,57.80
2019-04-28T08:04:40.371Z,57.90
2019-04-28T08:07:08.299Z,57.90
2019-04-28T08:09:36.152Z,57.80
2019-04-28T08:12:04.557Z,57.80
2019-04-28T08:14:32.404Z,57.90
2019-04-28T08:17:00.259Z,57.90
2019-04-28T08:19:28.124Z,57.90
2019-04-28T08:21:55.968Z,57.90
2019-04-28T08:24:24.092Z,57.90
2019-04-28T08:26:52.300Z,58.00
2019-04-28T08:29:20.435Z,55.00
2019-04-28T08:32:16.633Z,55.00
2019-04-28T08:34:44.819Z,54.80
2019-04-28T08:37:12.676Z,55.10
2019-04-28T08:39:40.559Z,55.50
2019-04-28T08:42:08.827Z,55.30
2019-04-28T08:44:36.666Z,55.60
2019-04-28T08:47:04.544Z,56.00
2019-04-28T08:49:33.254Z,56.40
2019-04-28T08:52:01.098Z,56.60
2019-04-28T08:54:29.019Z,56.60
2019-04-28T08:56:56.872Z,56.90
2019-04-28T08:59:24.728Z,56.90
2019-04-28T09:01:52.570Z,56.90
2019-04-28T09:04:20.809Z,57.00
2019-04-28T09:06:49.038Z,57.00
2019-04-28T09:09:18.127Z,57.10
2019-04-28T09:11:46.291Z,55.90
2019-04-28T09:14:14.232Z,56.50
2019-04-28T09:16:42.083Z,56.60
2019-04-28T09:19:10.720Z,56.70
2019-04-28T09:21:38.872Z,56.80
2019-04-28T09:24:07.059Z,57.00
2019-04-28T09:26:37.032Z,57.10
2019-04-28T09:29:04.600Z,57.00
2019-04-28T09:31:32.443Z,57.00
2019-04-28T09:34:00.292Z,57.20
2019-04-28T09:36:28.144Z,57.20
2019-04-28T09:38:56.369Z,57.20
2019-04-28T09:41:24.295Z,57.20
2019-04-28T09:44:06.783Z,57.20
2019-04-28T09:46:37.539Z,57.20
2019-04-28T09:49:05.792Z,57.20
2019-04-28T09:51:33.713Z,57.30
2019-04-28T09:54:01.760Z,57.30
2019-04-28T09:56:29.705Z,57.40
2019-04-28T09:58:57.971Z,57.40
2019-04-28T10:01:26.153Z,57.50
2019-04-28T10:03:54.446Z,57.50
2019-04-28T10:06:22.301Z,58.10
2019-04-28T10:08:50.173Z,57.50
2019-04-28T10:11:30.022Z,57.60
2019-04-28T10:13:47.663Z,57.60
2019-04-28T10:16:15.511Z,57.70
2019-04-28T10:18:43.383Z,57.70
2019-04-28T10:21:11.231Z,57.80
2019-04-28T10:23:39.104Z,58.00
2019-04-28T10:26:06.991Z,58.00
2019-04-28T10:28:35.487Z,58.00
2019-04-28T10:31:04.140Z,58.10
2019-04-28T10:33:32.072Z,58.10
2019-04-28T10:36:00.574Z,56.90
2019-04-28T10:38:28.492Z,56.40
2019-04-28T10:41:10.946Z,56.80
2019-04-28T10:43:38.888Z,57.40
2019-04-28T10:46:06.731Z,57.60
2019-04-28T10:48:34.612Z,58.10
2019-04-28T10:51:02.744Z,57.90
2019-04-28T10:53:30.917Z,57.70
2019-04-28T10:55:58.831Z,57.70
2019-04-28T10:58:26.675Z,57.80
2019-04-28T11:00:54.598Z,57.80
2019-04-28T11:03:22.523Z,57.90
2019-04-28T11:05:50.744Z,57.80
2019-04-28T11:08:37.807Z,58.00
2019-04-28T11:11:12.995Z,58.00
2019-04-28T11:13:40.875Z,58.00
2019-04-28T11:16:09.024Z,58.00
2019-04-28T11:18:36.877Z,58.10
2019-04-28T11:21:04.803Z,58.10
2019-04-28T11:23:32.647Z,58.10
2019-04-28T11:26:00.826Z,58.10
2019-04-28T11:28:29.030Z,58.10
2019-04-28T11:30:56.879Z,58.10
2019-04-28T11:33:49.267Z,58.10
2019-04-28T11:36:19.087Z,58.20
2019-04-28T11:38:46.959Z,58.20
2019-04-28T11:41:15.052Z,58.10
2019-04-28T11:43:42.890Z,58.10
2019-04-28T11:46:12.386Z,58.10
2019-04-28T11:48:40.244Z,58.20
2019-04-28T11:51:08.109Z,58.20
2019-04-28T11:53:36.010Z,58.10
2019-04-28T11:56:03.932Z,58.10
2019-04-28T11:58:31.821Z,58.10
2019-04-28T12:01:00.115Z,58.10
2019-04-28T12:03:27.972Z,58.20
2019-04-28T12:05:55.818Z,58.20
2019-04-28T12:08:23.664Z,58.20
2019-04-28T12:10:59.331Z,58.40
2019-04-28T12:13:46.295Z,58.20
2019-04-28T12:16:32.167Z,58.20
2019-04-28T12:19:08.636Z,58.20
2019-04-28T12:21:36.917Z,58.20
2019-04-28T12:24:04.765Z,58.20
2019-04-28T12:26:32.620Z,58.20
2019-04-28T12:29:00.897Z,58.20
2019-04-28T12:31:29.388Z,58.20
2019-04-28T12:33:57.236Z,58.20
2019-04-28T12:36:25.083Z,58.20
2019-04-28T12:38:52.934Z,58.20
2019-04-28T12:41:20.785Z,58.20
2019-04-28T12:43:49.239Z,58.20
2019-04-28T12:46:17.437Z,58.80
2019-04-28T12:48:45.601Z,58.20
2019-04-28T12:51:13.532Z,58.30
2019-04-28T12:53:41.371Z,58.10
2019-04-28T12:56:09.305Z,58.30
2019-04-28T12:58:37.156Z,58.10
2019-04-28T13:01:24.567Z,58.10
2019-04-28T13:04:10.576Z,58.00
2019-04-28T13:06:38.856Z,58.00
2019-04-28T13:09:07.090Z,58.10
2019-04-28T13:11:35.015Z,58.10
2019-04-28T13:14:02.855Z,58.10
2019-04-28T13:16:30.744Z,58.20
2019-04-28T13:18:58.900Z,58.20
2019-04-28T13:21:27.064Z,58.20
2019-04-28T13:23:55.730Z,58.20
2019-04-28T13:26:25.165Z,58.30
2019-04-28T13:28:54.312Z,58.30
2019-04-28T13:31:22.561Z,58.30
2019-04-28T13:33:56.487Z,58.30
2019-04-28T13:36:20.140Z,58.30
2019-04-28T13:38:47.988Z,58.30
2019-04-28T13:41:15.975Z,58.30
2019-04-28T13:43:43.829Z,58.30
2019-04-28T13:46:11.796Z,58.30
2019-04-28T13:48:39.665Z,58.30
2019-04-28T13:51:07.640Z,58.30
2019-04-28T13:53:35.492Z,58.30
2019-04-28T13:56:04.669Z,58.20
2019-04-28T13:58:54.917Z,58.20
2019-04-28T14:01:48.365Z,58.20
2019-04-28T14:04:25.291Z,58.10
2019-04-28T14:06:56.803Z,55.60
2019-04-28T14:09:24.742Z,54.00
2019-04-28T14:11:52.996Z,53.70
2019-04-28T14:14:20.938Z,53.80
2019-04-28T14:16:49.104Z,54.30
2019-04-28T14:19:16.940Z,55.00
2019-04-28T14:21:44.839Z,55.50
2019-04-28T14:24:13.112Z,55.30
2019-04-28T14:26:41.094Z,55.20
2019-04-28T14:29:09.303Z,54.20
2019-04-28T14:31:37.589Z,54.20
2019-04-28T14:34:05.432Z,53.50
2019-04-28T14:36:41.966Z,53.10
2019-04-28T14:39:03.937Z,52.80
2019-04-28T14:41:31.955Z,52.80
2019-04-28T14:43:59.864Z,52.20
2019-04-28T14:46:28.393Z,52.00
2019-04-28T14:48:56.327Z,52.10
2019-04-28T14:51:24.175Z,51.90
2019-04-28T14:53:52.092Z,52.60
2019-04-28T14:56:19.941Z,52.10
2019-04-28T14:58:47.918Z,52.40
2019-04-28T15:01:25.539Z,52.30
2019-04-28T15:03:55.304Z,52.70
2019-04-28T15:06:28.437Z,53.20
2019-04-28T15:09:27.329Z,53.70
2019-04-28T15:11:59.187Z,54.10
2019-04-28T15:14:27.028Z,54.40
2019-04-28T15:16:55.186Z,54.50
2019-04-28T15:19:23.074Z,54.50
2019-04-28T15:21:50.987Z,54.60
2019-04-28T15:24:18.971Z,55.30
2019-04-28T15:26:46.856Z,54.80
2019-04-28T15:29:15.044Z,54.90
2019-04-28T15:31:42.991Z,54.70
2019-04-28T15:34:10.920Z,54.90
2019-04-28T15:36:38.790Z,54.90
2019-04-28T15:39:08.791Z,54.70
2019-04-28T15:41:37.228Z,55.20
2019-04-28T15:44:05.236Z,55.40
2019-04-28T15:46:33.388Z,55.50
2019-04-28T15:49:01.317Z,55.70
2019-04-28T15:51:29.235Z,55.70
2019-04-28T15:53:57.091Z,55.80
2019-04-28T15:56:56.449Z,55.90
2019-04-28T15:59:25.672Z,55.90
2019-04-28T16:01:53.943Z,56.00
2019-04-28T16:04:22.430Z,56.10
2019-04-28T16:06:50.311Z,56.30
2019-04-28T16:09:18.959Z,56.60
2019-04-28T16:11:47.196Z,56.50
2019-04-28T16:14:15.842Z,56.60
2019-04-28T16:16:44.008Z,56.40
2019-04-28T16:19:12.023Z,56.60
2019-04-28T16:21:40.159Z,56.60
2019-04-28T16:24:08.045Z,56.90
2019-04-28T16:26:35.887Z,56.90
2019-04-28T16:29:04.218Z,56.70
2019-04-28T16:31:34.277Z,56.70
2019-04-28T16:34:02.479Z,56.90
2019-04-28T16:36:30.340Z,56.90
2019-04-28T16:38:58.211Z,56.70
2019-04-28T16:41:26.069Z,56.80
2019-04-28T16:43:54.548Z,56.80
2019-04-28T16:48:58.704Z,56.80
2019-04-28T16:51:27.089Z,56.80
2019-04-28T16:53:55.002Z,56.90
2019-04-28T16:56:40.847Z,56.90
2019-04-28T16:59:26.643Z,56.90
2019-04-28T17:02:03.722Z,57.00
2019-04-28T17:04:31.983Z,56.90
2019-04-28T17:07:00.155Z,57.00
2019-04-28T17:09:28.327Z,57.00
2019-04-28T17:11:56.504Z,57.10
2019-04-28T17:14:24.373Z,57.10
2019-04-28T17:16:52.543Z,57.10
2019-04-28T17:19:21.131Z,57.20
2019-04-28T17:21:49.404Z,57.10
2019-04-28T17:24:17.318Z,57.00
2019-04-28T17:26:45.736Z,57.10
2019-04-28T17:29:14.331Z,57.20
2019-04-28T17:31:42.256Z,57.30
2019-04-28T17:34:10.128Z,57.20
2019-04-28T17:36:38.245Z,57.30
2019-04-28T17:39:09.040Z,57.50
2019-04-28T17:41:36.999Z,57.40
2019-04-28T17:44:05.184Z,57.30
2019-04-28T17:46:33.904Z,57.20
2019-04-28T17:49:02.782Z,57.10
2019-04-28T17:51:30.967Z,57.00
2019-04-28T17:53:58.892Z,57.00
2019-04-28T17:56:26.808Z,57.10
2019-04-28T17:58:55.075Z,57.10
2019-04-28T18:01:43.938Z,57.20
2019-04-28T18:04:49.434Z,57.20
2019-04-28T18:07:21.600Z,57.30
2019-04-28T18:09:50.904Z,57.30
2019-04-28T18:12:19.044Z,57.30
2019-04-28T18:14:49.204Z,57.20
2019-04-28T18:17:47.652Z,57.10
2019-04-28T18:20:16.051Z,57.30
2019-04-28T18:22:44.613Z,57.20
2019-04-28T18:25:14.967Z,57.20
2019-04-28T18:27:43.815Z,57.20
2019-04-28T18:30:13.595Z,57.20
2019-04-28T18:33:08.651Z,57.20
2019-04-28T18:35:41.123Z,57.20
2019-04-28T18:38:34.277Z,57.30
2019-04-28T18:41:11.383Z,57.30
2019-04-28T18:43:57.973Z,57.30
2019-04-28T18:46:28.974Z,57.10
2019-04-28T18:48:56.883Z,57.00
2019-04-28T18:51:24.731Z,57.10
2019-04-28T18:53:52.648Z,57.30
2019-04-28T18:56:20.496Z,57.30
2019-04-28T18:58:48.428Z,57.40
2019-04-28T19:01:23.208Z,57.50
2019-04-28T19:03:51.219Z,57.50
2019-04-28T19:06:19.621Z,57.20
2019-04-28T19:08:52.835Z,57.60
2019-04-28T19:11:37.781Z,57.30
2019-04-28T19:14:12.092Z,57.30
2019-04-28T19:17:11.703Z,57.30
2019-04-28T19:19:39.927Z,57.20
2019-04-28T19:22:08.463Z,57.40
2019-04-28T19:24:36.307Z,57.50
2019-04-28T19:27:04.500Z,57.30
2019-04-28T19:29:32.648Z,57.60
2019-04-28T19:32:00.805Z,57.50
2019-04-28T19:34:28.656Z,57.40
2019-04-28T19:36:56.531Z,57.40
2019-04-28T19:39:24.443Z,57.20
2019-04-28T19:41:52.644Z,57.20
2019-04-28T19:44:20.559Z,57.20
2019-04-28T19:46:48.816Z,57.50
2019-04-28T19:49:17.046Z,57.60
2019-04-28T19:51:45.015Z,57.50
2019-04-28T19:54:13.367Z,57.50
2019-04-28T19:56:46.085Z,57.70
2019-04-28T19:59:21.052Z,57.80
2019-04-28T20:01:49.382Z,57.40
2019-04-28T20:04:17.255Z,57.30
2019-04-28T20:06:45.103Z,57.20
2019-04-28T20:09:13.280Z,57.20
2019-04-28T20:11:41.763Z,57.30
2019-04-28T20:14:09.606Z,57.30
2019-04-28T20:16:37.799Z,57.70
2019-04-28T20:19:05.649Z,57.80
2019-04-28T20:21:33.838Z,57.70
2019-04-28T20:24:01.750Z,57.70
2019-04-28T20:26:29.879Z,57.70
2019-04-28T20:28:57.739Z,58.00
2019-04-28T20:31:25.596Z,58.10
2019-04-28T20:33:53.442Z,58.30
2019-04-28T20:36:32.942Z,58.50
2019-04-28T20:39:04.163Z,58.60
2019-04-28T20:41:32.436Z,58.00
2019-04-28T20:44:01.020Z,58.10
2019-04-28T20:46:29.296Z,58.70
2019-04-28T20:48:57.144Z,57.70
2019-04-28T20:51:25.336Z,57.80
2019-04-28T20:53:53.816Z,58.00
2019-04-28T20:56:21.735Z,57.90
2019-04-28T20:58:49.855Z,57.80
2019-04-28T21:01:18.140Z,57.70
2019-04-28T21:03:46.303Z,58.00
2019-04-28T21:06:14.483Z,57.90
2019-04-28T21:08:42.760Z,57.70
2019-04-28T21:11:10.927Z,57.80
2019-04-28T21:13:38.769Z,58.30
2019-04-28T21:16:06.976Z,58.20
2019-04-28T21:18:35.248Z,57.90
2019-04-28T21:21:03.519Z,57.50
2019-04-28T21:23:32.103Z,57.50
2019-04-28T21:26:00.405Z,57.40
2019-04-28T21:28:28.555Z,57.50
2019-04-28T21:30:56.495Z,57.50
2019-04-28T21:33:24.616Z,57.30
2019-04-28T21:35:52.530Z,57.50
2019-04-28T21:38:20.423Z,57.70
2019-04-28T21:40:48.631Z,57.60
2019-04-28T21:43:35.599Z,57.70
2019-04-28T21:46:26.199Z,57.40
2019-04-28T21:49:12.423Z,57.50
2019-04-28T21:51:40.330Z,57.50
2019-04-28T21:54:08.449Z,57.20
2019-04-28T21:56:36.928Z,57.10
2019-04-28T21:59:05.135Z,56.90
2019-04-28T22:01:33.126Z,57.30
2019-04-28T22:04:00.968Z,57.20
2019-04-28T22:06:28.879Z,57.20
2019-04-28T22:08:56.732Z,56.90
2019-04-28T22:11:24.644Z,57.40
2019-04-28T22:13:52.813Z,57.20
2019-04-28T22:16:20.724Z,57.10
2019-04-28T22:18:48.960Z,57.20
2019-04-28T22:21:16.830Z,57.40
2019-04-28T22:23:58.123Z,57.40
2019-04-28T22:26:44.147Z,57.40
2019-04-28T22:29:12.468Z,57.40
2019-04-28T22:31:40.458Z,57.90
2019-04-28T22:34:08.302Z,57.30
2019-04-28T22:36:36.480Z,57.30
2019-04-28T22:39:05.367Z,57.40
2019-04-28T22:41:33.248Z,57.50
2019-04-28T22:44:01.407Z,57.50
2019-04-28T22:46:29.250Z,57.60
2019-04-28T22:48:59.304Z,57.40
2019-04-28T22:51:27.463Z,57.40
2019-04-28T22:53:55.592Z,57.40
2019-04-28T22:56:38.993Z,57.30
2019-04-28T22:59:20.147Z,57.50
2019-04-28T23:01:52.291Z,57.30
2019-04-28T23:04:36.663Z,57.40
2019-04-28T23:07:04.755Z,57.40
2019-04-28T23:09:32.612Z,57.50
2019-04-28T23:12:00.480Z,57.30
2019-04-28T23:14:28.394Z,57.20
2019-04-28T23:16:57.019Z,57.10
2019-04-28T23:19:27.343Z,57.10
2019-04-28T23:22:02.171Z,57.30
2019-04-28T23:24:30.015Z,57.40
2019-04-28T23:26:57.883Z,57.40
2019-04-28T23:29:25.769Z,57.50
2019-04-28T23:31:53.715Z,57.30
2019-04-28T23:34:21.587Z,57.30
2019-04-28T23:36:49.800Z,57.60
2019-04-28T23:39:18.059Z,57.40
2019-04-28T23:42:07.891Z,57.30
2019-04-28T23:44:35.815Z,57.30
2019-04-28T23:47:04.292Z,57.00
2019-04-28T23:49:32.166Z,57.00
2019-04-28T23:52:19.471Z,57.00
2019-04-28T23:54:49.719Z,57.00
2019-04-28T23:57:17.597Z,56.90
2019-04-28T23:59:45.750Z,56.90
